sensor_id;sensor_type;location;lat;lon;timestamp;P1;durP1;ratioP1;P2;durP2;ratioP2
11394;SDS011;5753;54.402;10.220;2023-02-10T00:01:31;34.65;;;16.58;;
11394;SDS011;5753;54.402;10.220;2023-02-10T00:03:57;51.60;;;22.48;;
11394;SDS011;5753;54.402;10.220;2023-02-10T00:06:27;38.28;;;20.73;;
11394;SDS011;5753;54.402;10.220;2023-02-10T00:08:54;35.80;;;19.48;;
11394;SDS011;5753;54.402;10.220;2023-02-10T00:11:22;47.78;;;19.70;;
11394;SDS011;5753;54.402;10.220;2023-02-10T00:14:09;36.80;;;19.98;;
11394;SDS011;5753;54.402;10.220;2023-02-10T00:16:36;36.75;;;19.42;;
11394;SDS011;5753;54.402;10.220;2023-02-10T00:19:03;34.30;;;18.58;;
11394;SDS011;5753;54.402;10.220;2023-02-10T00:21:29;47.28;;;22.35;;
11394;SDS011;5753;54.402;10.220;2023-02-10T00:23:56;32.83;;;20.60;;
11394;SDS011;5753;54.402;10.220;2023-02-10T00:26:22;39.80;;;21.17;;
11394;SDS011;5753;54.402;10.220;2023-02-10T00:28:48;32.17;;;16.88;;
11394;SDS011;5753;54.402;10.220;2023-02-10T00:31:15;33.53;;;18.95;;
11394;SDS011;5753;54.402;10.220;2023-02-10T00:33:44;32.58;;;17.63;;
11394;SDS011;5753;54.402;10.220;2023-02-10T00:36:11;42.70;;;20.58;;
11394;SDS011;5753;54.402;10.220;2023-02-10T00:38:38;49.35;;;19.30;;
11394;SDS011;5753;54.402;10.220;2023-02-10T00:41:07;33.83;;;18.25;;
11394;SDS011;5753;54.402;10.220;2023-02-10T00:43:36;43.80;;;17.75;;
11394;SDS011;5753;54.402;10.220;2023-02-10T00:46:04;32.80;;;17.05;;
11394;SDS011;5753;54.402;10.220;2023-02-10T00:48:31;35.00;;;20.23;;
11394;SDS011;5753;54.402;10.220;2023-02-10T00:50:57;42.03;;;15.30;;
11394;SDS011;5753;54.402;10.220;2023-02-10T00:53:24;28.23;;;18.42;;
11394;SDS011;5753;54.402;10.220;2023-02-10T00:55:51;31.42;;;18.98;;
11394;SDS011;5753;54.402;10.220;2023-02-10T00:58:17;42.55;;;22.08;;
11394;SDS011;5753;54.402;10.220;2023-02-10T01:00:43;39.58;;;18.75;;
11394;SDS011;5753;54.402;10.220;2023-02-10T01:03:09;34.88;;;15.52;;
11394;SDS011;5753;54.402;10.220;2023-02-10T01:05:36;30.70;;;16.00;;
11394;SDS011;5753;54.402;10.220;2023-02-10T01:08:02;28.60;;;16.42;;
11394;SDS011;5753;54.402;10.220;2023-02-10T01:10:28;44.65;;;14.95;;
11394;SDS011;5753;54.402;10.220;2023-02-10T01:12:59;29.63;;;17.10;;
11394;SDS011;5753;54.402;10.220;2023-02-10T01:15:26;32.25;;;14.73;;
11394;SDS011;5753;54.402;10.220;2023-02-10T01:17:52;32.15;;;12.88;;
11394;SDS011;5753;54.402;10.220;2023-02-10T01:20:18;39.45;;;18.67;;
11394;SDS011;5753;54.402;10.220;2023-02-10T01:22:45;26.67;;;13.35;;
11394;SDS011;5753;54.402;10.220;2023-02-10T01:25:11;39.13;;;17.08;;
11394;SDS011;5753;54.402;10.220;2023-02-10T01:27:37;35.75;;;14.95;;
11394;SDS011;5753;54.402;10.220;2023-02-10T01:30:03;36.13;;;16.67;;
11394;SDS011;5753;54.402;10.220;2023-02-10T01:32:30;36.53;;;15.70;;
11394;SDS011;5753;54.402;10.220;2023-02-10T01:34:56;31.52;;;12.50;;
11394;SDS011;5753;54.402;10.220;2023-02-10T01:37:22;49.97;;;16.17;;
11394;SDS011;5753;54.402;10.220;2023-02-10T01:39:48;23.25;;;13.02;;
11394;SDS011;5753;54.402;10.220;2023-02-10T01:42:15;26.92;;;12.93;;
11394;SDS011;5753;54.402;10.220;2023-02-10T01:47:07;35.00;;;11.75;;
11394;SDS011;5753;54.402;10.220;2023-02-10T01:49:35;39.30;;;14.63;;
11394;SDS011;5753;54.402;10.220;2023-02-10T01:52:12;30.45;;;11.90;;
11394;SDS011;5753;54.402;10.220;2023-02-10T01:55:07;25.65;;;12.00;;
11394;SDS011;5753;54.402;10.220;2023-02-10T01:57:33;28.20;;;14.20;;
11394;SDS011;5753;54.402;10.220;2023-02-10T02:00:04;35.92;;;11.93;;
11394;SDS011;5753;54.402;10.220;2023-02-10T02:02:31;25.98;;;13.13;;
11394;SDS011;5753;54.402;10.220;2023-02-10T02:05:00;27.80;;;12.45;;
11394;SDS011;5753;54.402;10.220;2023-02-10T02:07:29;32.53;;;11.25;;
11394;SDS011;5753;54.402;10.220;2023-02-10T02:10:01;33.65;;;9.82;;
11394;SDS011;5753;54.402;10.220;2023-02-10T02:12:34;18.08;;;9.80;;
11394;SDS011;5753;54.402;10.220;2023-02-10T02:15:23;31.02;;;12.13;;
11394;SDS011;5753;54.402;10.220;2023-02-10T02:18:11;46.35;;;12.75;;
11394;SDS011;5753;54.402;10.220;2023-02-10T02:26:29;33.92;;;9.70;;
11394;SDS011;5753;54.402;10.220;2023-02-10T02:37:05;17.02;;;7.78;;
11394;SDS011;5753;54.402;10.220;2023-02-10T02:39:42;13.82;;;6.45;;
11394;SDS011;5753;54.402;10.220;2023-02-10T02:44:42;20.38;;;6.20;;
11394;SDS011;5753;54.402;10.220;2023-02-10T02:52:35;21.80;;;9.48;;
11394;SDS011;5753;54.402;10.220;2023-02-10T03:00:43;18.00;;;7.30;;
11394;SDS011;5753;54.402;10.220;2023-02-10T03:03:11;15.88;;;6.07;;
11394;SDS011;5753;54.402;10.220;2023-02-10T03:05:37;26.70;;;5.68;;
11394;SDS011;5753;54.402;10.220;2023-02-10T03:08:04;15.25;;;5.85;;
11394;SDS011;5753;54.402;10.220;2023-02-10T03:10:30;14.57;;;8.45;;
11394;SDS011;5753;54.402;10.220;2023-02-10T03:12:56;19.90;;;6.43;;
11394;SDS011;5753;54.402;10.220;2023-02-10T03:15:22;34.33;;;7.47;;
11394;SDS011;5753;54.402;10.220;2023-02-10T03:17:48;11.63;;;4.68;;
11394;SDS011;5753;54.402;10.220;2023-02-10T03:20:15;15.13;;;6.60;;
11394;SDS011;5753;54.402;10.220;2023-02-10T03:22:41;12.40;;;6.32;;
11394;SDS011;5753;54.402;10.220;2023-02-10T03:25:08;19.40;;;5.57;;
11394;SDS011;5753;54.402;10.220;2023-02-10T03:27:34;24.65;;;8.05;;
11394;SDS011;5753;54.402;10.220;2023-02-10T03:30:00;19.73;;;5.80;;
11394;SDS011;5753;54.402;10.220;2023-02-10T03:32:27;15.00;;;4.45;;
11394;SDS011;5753;54.402;10.220;2023-02-10T03:34:53;13.32;;;5.38;;
11394;SDS011;5753;54.402;10.220;2023-02-10T03:37:19;11.60;;;4.97;;
11394;SDS011;5753;54.402;10.220;2023-02-10T03:39:45;16.10;;;6.13;;
11394;SDS011;5753;54.402;10.220;2023-02-10T03:42:12;19.40;;;5.45;;
11394;SDS011;5753;54.402;10.220;2023-02-10T03:44:38;18.73;;;7.32;;
11394;SDS011;5753;54.402;10.220;2023-02-10T03:47:04;8.20;;;4.03;;
11394;SDS011;5753;54.402;10.220;2023-02-10T03:49:31;13.77;;;4.25;;
11394;SDS011;5753;54.402;10.220;2023-02-10T03:51:57;13.30;;;6.78;;
11394;SDS011;5753;54.402;10.220;2023-02-10T03:54:23;20.15;;;7.13;;
11394;SDS011;5753;54.402;10.220;2023-02-10T03:56:49;16.70;;;6.97;;
11394;SDS011;5753;54.402;10.220;2023-02-10T03:59:15;25.70;;;9.93;;
11394;SDS011;5753;54.402;10.220;2023-02-10T04:01:42;15.45;;;5.18;;
11394;SDS011;5753;54.402;10.220;2023-02-10T04:04:08;24.92;;;6.40;;
11394;SDS011;5753;54.402;10.220;2023-02-10T04:06:34;13.65;;;4.80;;
11394;SDS011;5753;54.402;10.220;2023-02-10T04:09:00;21.50;;;5.60;;
11394;SDS011;5753;54.402;10.220;2023-02-10T04:11:26;15.00;;;5.05;;
11394;SDS011;5753;54.402;10.220;2023-02-10T04:13:52;18.17;;;5.05;;
11394;SDS011;5753;54.402;10.220;2023-02-10T04:16:19;18.92;;;6.32;;
11394;SDS011;5753;54.402;10.220;2023-02-10T04:18:47;19.58;;;5.10;;
11394;SDS011;5753;54.402;10.220;2023-02-10T04:21:14;17.02;;;6.40;;
11394;SDS011;5753;54.402;10.220;2023-02-10T04:23:40;15.27;;;4.28;;
11394;SDS011;5753;54.402;10.220;2023-02-10T04:26:06;9.73;;;3.75;;
11394;SDS011;5753;54.402;10.220;2023-02-10T04:28:33;13.77;;;5.20;;
11394;SDS011;5753;54.402;10.220;2023-02-10T04:30:59;23.55;;;7.05;;
11394;SDS011;5753;54.402;10.220;2023-02-10T04:33:27;18.33;;;6.75;;
11394;SDS011;5753;54.402;10.220;2023-02-10T04:35:53;22.70;;;5.97;;
11394;SDS011;5753;54.402;10.220;2023-02-10T04:38:21;17.35;;;6.30;;
11394;SDS011;5753;54.402;10.220;2023-02-10T04:40:47;15.77;;;6.65;;
11394;SDS011;5753;54.402;10.220;2023-02-10T04:43:13;14.70;;;4.63;;
11394;SDS011;5753;54.402;10.220;2023-02-10T04:45:40;19.25;;;3.92;;
11394;SDS011;5753;54.402;10.220;2023-02-10T04:48:06;16.08;;;5.47;;
11394;SDS011;5753;54.402;10.220;2023-02-10T04:50:32;15.10;;;6.93;;
11394;SDS011;5753;54.402;10.220;2023-02-10T04:53:00;30.85;;;7.43;;
11394;SDS011;5753;54.402;10.220;2023-02-10T04:55:26;17.38;;;6.35;;
11394;SDS011;5753;54.402;10.220;2023-02-10T04:57:53;13.52;;;4.97;;
11394;SDS011;5753;54.402;10.220;2023-02-10T05:00:19;8.75;;;2.97;;
11394;SDS011;5753;54.402;10.220;2023-02-10T05:02:45;15.30;;;6.68;;
11394;SDS011;5753;54.402;10.220;2023-02-10T05:05:12;10.55;;;5.47;;
11394;SDS011;5753;54.402;10.220;2023-02-10T05:07:38;22.33;;;6.22;;
11394;SDS011;5753;54.402;10.220;2023-02-10T05:10:04;13.00;;;6.13;;
11394;SDS011;5753;54.402;10.220;2023-02-10T05:12:31;23.48;;;5.13;;
11394;SDS011;5753;54.402;10.220;2023-02-10T05:14:57;14.50;;;8.13;;
11394;SDS011;5753;54.402;10.220;2023-02-10T05:17:23;21.20;;;8.25;;
11394;SDS011;5753;54.402;10.220;2023-02-10T05:19:49;20.40;;;7.35;;
11394;SDS011;5753;54.402;10.220;2023-02-10T05:22:15;17.23;;;6.82;;
11394;SDS011;5753;54.402;10.220;2023-02-10T05:24:41;25.05;;;8.00;;
11394;SDS011;5753;54.402;10.220;2023-02-10T05:27:08;20.33;;;6.90;;
11394;SDS011;5753;54.402;10.220;2023-02-10T05:29:34;26.20;;;8.93;;
11394;SDS011;5753;54.402;10.220;2023-02-10T05:32:00;15.77;;;8.32;;
11394;SDS011;5753;54.402;10.220;2023-02-10T05:34:27;25.60;;;7.85;;
11394;SDS011;5753;54.402;10.220;2023-02-10T05:36:53;22.50;;;8.82;;
11394;SDS011;5753;54.402;10.220;2023-02-10T05:39:20;21.40;;;9.95;;
11394;SDS011;5753;54.402;10.220;2023-02-10T05:41:49;18.30;;;8.57;;
11394;SDS011;5753;54.402;10.220;2023-02-10T05:44:16;29.13;;;9.10;;
11394;SDS011;5753;54.402;10.220;2023-02-10T05:46:43;16.83;;;7.75;;
11394;SDS011;5753;54.402;10.220;2023-02-10T05:49:09;37.80;;;11.38;;
11394;SDS011;5753;54.402;10.220;2023-02-10T05:51:35;61.78;;;11.48;;
11394;SDS011;5753;54.402;10.220;2023-02-10T05:54:01;23.13;;;11.40;;
11394;SDS011;5753;54.402;10.220;2023-02-10T05:56:28;31.42;;;12.13;;
11394;SDS011;5753;54.402;10.220;2023-02-10T05:58:54;22.35;;;10.48;;
11394;SDS011;5753;54.402;10.220;2023-02-10T06:01:21;36.78;;;10.35;;
11394;SDS011;5753;54.402;10.220;2023-02-10T06:03:47;27.75;;;9.25;;
11394;SDS011;5753;54.402;10.220;2023-02-10T06:06:13;28.45;;;9.05;;
11394;SDS011;5753;54.402;10.220;2023-02-10T06:08:40;27.40;;;9.23;;
11394;SDS011;5753;54.402;10.220;2023-02-10T06:11:06;22.63;;;8.43;;
11394;SDS011;5753;54.402;10.220;2023-02-10T06:13:33;27.05;;;12.75;;
11394;SDS011;5753;54.402;10.220;2023-02-10T06:15:59;25.20;;;9.23;;
11394;SDS011;5753;54.402;10.220;2023-02-10T06:18:28;42.67;;;8.13;;
11394;SDS011;5753;54.402;10.220;2023-02-10T06:20:55;14.75;;;6.47;;
11394;SDS011;5753;54.402;10.220;2023-02-10T06:23:21;50.03;;;10.30;;
11394;SDS011;5753;54.402;10.220;2023-02-10T06:25:48;18.15;;;8.35;;
11394;SDS011;5753;54.402;10.220;2023-02-10T06:28:19;41.55;;;10.73;;
11394;SDS011;5753;54.402;10.220;2023-02-10T06:30:49;28.83;;;12.15;;
11394;SDS011;5753;54.402;10.220;2023-02-10T06:33:16;48.30;;;11.35;;
11394;SDS011;5753;54.402;10.220;2023-02-10T06:35:42;22.20;;;11.57;;
11394;SDS011;5753;54.402;10.220;2023-02-10T06:38:09;27.90;;;9.80;;
11394;SDS011;5753;54.402;10.220;2023-02-10T06:40:35;25.25;;;11.20;;
11394;SDS011;5753;54.402;10.220;2023-02-10T06:43:02;19.92;;;9.25;;
11394;SDS011;5753;54.402;10.220;2023-02-10T06:45:28;21.50;;;8.63;;
11394;SDS011;5753;54.402;10.220;2023-02-10T06:47:54;21.90;;;9.55;;
11394;SDS011;5753;54.402;10.220;2023-02-10T06:50:21;25.02;;;9.20;;
11394;SDS011;5753;54.402;10.220;2023-02-10T06:52:47;24.65;;;7.32;;
11394;SDS011;5753;54.402;10.220;2023-02-10T06:55:14;17.20;;;7.85;;
11394;SDS011;5753;54.402;10.220;2023-02-10T06:57:41;22.23;;;8.77;;
11394;SDS011;5753;54.402;10.220;2023-02-10T07:00:09;49.13;;;14.85;;
11394;SDS011;5753;54.402;10.220;2023-02-10T07:02:37;17.55;;;10.77;;
11394;SDS011;5753;54.402;10.220;2023-02-10T07:05:05;37.33;;;13.88;;
11394;SDS011;5753;54.402;10.220;2023-02-10T07:07:33;31.73;;;11.55;;
11394;SDS011;5753;54.402;10.220;2023-02-10T07:10:00;22.42;;;9.13;;
11394;SDS011;5753;54.402;10.220;2023-02-10T07:12:26;16.73;;;8.00;;
11394;SDS011;5753;54.402;10.220;2023-02-10T07:14:52;32.65;;;10.60;;
11394;SDS011;5753;54.402;10.220;2023-02-10T07:17:19;25.08;;;11.00;;
11394;SDS011;5753;54.402;10.220;2023-02-10T07:19:46;18.23;;;9.80;;
11394;SDS011;5753;54.402;10.220;2023-02-10T07:22:12;18.80;;;11.38;;
11394;SDS011;5753;54.402;10.220;2023-02-10T07:24:39;19.52;;;7.40;;
11394;SDS011;5753;54.402;10.220;2023-02-10T07:27:05;30.92;;;8.85;;
11394;SDS011;5753;54.402;10.220;2023-02-10T07:29:31;16.30;;;7.57;;
11394;SDS011;5753;54.402;10.220;2023-02-10T07:31:57;29.13;;;12.48;;
11394;SDS011;5753;54.402;10.220;2023-02-10T07:34:24;24.05;;;12.38;;
11394;SDS011;5753;54.402;10.220;2023-02-10T07:36:51;29.20;;;11.98;;
11394;SDS011;5753;54.402;10.220;2023-02-10T07:39:22;27.75;;;10.20;;
11394;SDS011;5753;54.402;10.220;2023-02-10T07:41:49;16.45;;;10.13;;
11394;SDS011;5753;54.402;10.220;2023-02-10T07:44:16;22.00;;;10.95;;
11394;SDS011;5753;54.402;10.220;2023-02-10T07:46:42;21.73;;;8.65;;
11394;SDS011;5753;54.402;10.220;2023-02-10T07:49:09;30.45;;;11.23;;
11394;SDS011;5753;54.402;10.220;2023-02-10T07:51:35;20.77;;;10.05;;
11394;SDS011;5753;54.402;10.220;2023-02-10T07:54:01;15.30;;;8.07;;
11394;SDS011;5753;54.402;10.220;2023-02-10T07:56:28;17.10;;;8.35;;
11394;SDS011;5753;54.402;10.220;2023-02-10T07:58:55;28.73;;;12.48;;
11394;SDS011;5753;54.402;10.220;2023-02-10T08:01:21;112.72;;;67.40;;
11394;SDS011;5753;54.402;10.220;2023-02-10T08:03:47;71.20;;;35.08;;
11394;SDS011;5753;54.402;10.220;2023-02-10T08:06:18;40.35;;;9.57;;
11394;SDS011;5753;54.402;10.220;2023-02-10T08:08:46;26.92;;;8.50;;
11394;SDS011;5753;54.402;10.220;2023-02-10T08:11:12;32.08;;;8.65;;
11394;SDS011;5753;54.402;10.220;2023-02-10T08:13:39;18.77;;;8.73;;
11394;SDS011;5753;54.402;10.220;2023-02-10T08:16:05;19.20;;;9.23;;
11394;SDS011;5753;54.402;10.220;2023-02-10T08:18:36;20.85;;;7.63;;
11394;SDS011;5753;54.402;10.220;2023-02-10T08:21:02;21.35;;;7.18;;
11394;SDS011;5753;54.402;10.220;2023-02-10T08:23:29;21.27;;;9.18;;
11394;SDS011;5753;54.402;10.220;2023-02-10T08:25:55;20.42;;;9.48;;
11394;SDS011;5753;54.402;10.220;2023-02-10T08:28:22;22.42;;;10.65;;
11394;SDS011;5753;54.402;10.220;2023-02-10T08:30:48;26.90;;;9.68;;
11394;SDS011;5753;54.402;10.220;2023-02-10T08:33:14;18.67;;;9.20;;
11394;SDS011;5753;54.402;10.220;2023-02-10T08:35:41;31.48;;;11.82;;
11394;SDS011;5753;54.402;10.220;2023-02-10T08:38:07;29.08;;;11.75;;
11394;SDS011;5753;54.402;10.220;2023-02-10T08:40:34;17.08;;;7.03;;
11394;SDS011;5753;54.402;10.220;2023-02-10T08:43:01;26.40;;;10.98;;
11394;SDS011;5753;54.402;10.220;2023-02-10T08:45:27;20.65;;;6.45;;
11394;SDS011;5753;54.402;10.220;2023-02-10T08:47:54;29.42;;;9.30;;
11394;SDS011;5753;54.402;10.220;2023-02-10T08:50:20;23.83;;;11.07;;
11394;SDS011;5753;54.402;10.220;2023-02-10T08:52:46;19.30;;;8.27;;
11394;SDS011;5753;54.402;10.220;2023-02-10T08:55:12;19.30;;;7.13;;
11394;SDS011;5753;54.402;10.220;2023-02-10T08:57:38;10.98;;;5.40;;
11394;SDS011;5753;54.402;10.220;2023-02-10T09:00:05;22.08;;;8.68;;
11394;SDS011;5753;54.402;10.220;2023-02-10T09:02:32;13.40;;;8.63;;
11394;SDS011;5753;54.402;10.220;2023-02-10T09:04:58;20.60;;;7.00;;
11394;SDS011;5753;54.402;10.220;2023-02-10T09:07:25;23.13;;;9.23;;
11394;SDS011;5753;54.402;10.220;2023-02-10T09:09:51;34.40;;;8.68;;
11394;SDS011;5753;54.402;10.220;2023-02-10T09:12:17;16.08;;;8.60;;
11394;SDS011;5753;54.402;10.220;2023-02-10T09:14:43;22.92;;;6.45;;
11394;SDS011;5753;54.402;10.220;2023-02-10T09:17:10;27.00;;;9.35;;
11394;SDS011;5753;54.402;10.220;2023-02-10T09:19:36;33.85;;;10.38;;
11394;SDS011;5753;54.402;10.220;2023-02-10T09:22:04;18.63;;;6.60;;
11394;SDS011;5753;54.402;10.220;2023-02-10T09:24:31;22.98;;;8.88;;
11394;SDS011;5753;54.402;10.220;2023-02-10T09:26:57;31.50;;;9.32;;
11394;SDS011;5753;54.402;10.220;2023-02-10T09:29:24;17.67;;;7.60;;
11394;SDS011;5753;54.402;10.220;2023-02-10T09:31:50;22.60;;;10.18;;
11394;SDS011;5753;54.402;10.220;2023-02-10T09:34:17;25.25;;;9.05;;
11394;SDS011;5753;54.402;10.220;2023-02-10T09:36:43;22.38;;;8.13;;
11394;SDS011;5753;54.402;10.220;2023-02-10T09:39:09;22.38;;;8.63;;
11394;SDS011;5753;54.402;10.220;2023-02-10T09:54:53;33.55;;;12.60;;
11394;SDS011;5753;54.402;10.220;2023-02-10T09:57:34;31.10;;;10.90;;
11394;SDS011;5753;54.402;10.220;2023-02-10T10:00:05;21.95;;;11.38;;
11394;SDS011;5753;54.402;10.220;2023-02-10T10:02:58;32.65;;;16.70;;
11394;SDS011;5753;54.402;10.220;2023-02-10T10:05:42;28.00;;;13.95;;
11394;SDS011;5753;54.402;10.220;2023-02-10T10:11:00;26.25;;;11.90;;
11394;SDS011;5753;54.402;10.220;2023-02-10T10:13:30;35.90;;;13.93;;
11394;SDS011;5753;54.402;10.220;2023-02-10T10:19:03;27.25;;;14.45;;
11394;SDS011;5753;54.402;10.220;2023-02-10T10:27:20;27.17;;;12.43;;
11394;SDS011;5753;54.402;10.220;2023-02-10T10:29:57;26.15;;;12.60;;
11394;SDS011;5753;54.402;10.220;2023-02-10T10:32:35;28.60;;;13.05;;
11394;SDS011;5753;54.402;10.220;2023-02-10T10:35:11;37.22;;;15.45;;
11394;SDS011;5753;54.402;10.220;2023-02-10T10:37:41;27.15;;;13.13;;
11394;SDS011;5753;54.402;10.220;2023-02-10T10:40:10;39.05;;;15.07;;
11394;SDS011;5753;54.402;10.220;2023-02-10T10:42:45;26.83;;;11.75;;
11394;SDS011;5753;54.402;10.220;2023-02-10T10:45:19;20.75;;;12.90;;
11394;SDS011;5753;54.402;10.220;2023-02-10T10:50:34;34.50;;;10.82;;
11394;SDS011;5753;54.402;10.220;2023-02-10T10:53:01;21.15;;;11.45;;
11394;SDS011;5753;54.402;10.220;2023-02-10T10:55:38;23.85;;;8.35;;
11394;SDS011;5753;54.402;10.220;2023-02-10T10:58:25;26.35;;;11.93;;
11394;SDS011;5753;54.402;10.220;2023-02-10T11:00:54;28.95;;;10.38;;
11394;SDS011;5753;54.402;10.220;2023-02-10T11:03:23;27.15;;;10.88;;
11394;SDS011;5753;54.402;10.220;2023-02-10T11:08:40;20.00;;;8.65;;
11394;SDS011;5753;54.402;10.220;2023-02-10T11:11:09;26.52;;;12.95;;
11394;SDS011;5753;54.402;10.220;2023-02-10T11:13:39;17.10;;;8.63;;
11394;SDS011;5753;54.402;10.220;2023-02-10T11:16:14;18.58;;;9.75;;
11394;SDS011;5753;54.402;10.220;2023-02-10T11:18:56;13.95;;;7.32;;
11394;SDS011;5753;54.402;10.220;2023-02-10T11:21:34;22.63;;;9.07;;
11394;SDS011;5753;54.402;10.220;2023-02-10T11:24:02;27.48;;;9.98;;
11394;SDS011;5753;54.402;10.220;2023-02-10T11:26:28;12.75;;;6.20;;
11394;SDS011;5753;54.402;10.220;2023-02-10T11:28:55;14.48;;;7.47;;
11394;SDS011;5753;54.402;10.220;2023-02-10T11:36:30;24.85;;;8.05;;
11394;SDS011;5753;54.402;10.220;2023-02-10T11:39:20;13.13;;;6.63;;
11394;SDS011;5753;54.402;10.220;2023-02-10T11:41:48;21.88;;;9.82;;
11394;SDS011;5753;54.402;10.220;2023-02-10T11:46:59;9.73;;;7.57;;
11394;SDS011;5753;54.402;10.220;2023-02-10T11:49:36;13.50;;;8.52;;
11394;SDS011;5753;54.402;10.220;2023-02-10T11:52:06;13.82;;;7.25;;
11394;SDS011;5753;54.402;10.220;2023-02-10T11:54:32;16.83;;;8.07;;
11394;SDS011;5753;54.402;10.220;2023-02-10T12:24:06;16.02;;;6.95;;
11394;SDS011;5753;54.402;10.220;2023-02-10T12:27:04;18.02;;;7.93;;
11394;SDS011;5753;54.402;10.220;2023-02-10T12:40:26;16.05;;;5.70;;
11394;SDS011;5753;54.402;10.220;2023-02-10T12:43:09;16.80;;;6.15;;
11394;SDS011;5753;54.402;10.220;2023-02-10T12:54:02;14.10;;;6.00;;
11394;SDS011;5753;54.402;10.220;2023-02-10T12:56:45;9.50;;;4.63;;
11394;SDS011;5753;54.402;10.220;2023-02-10T12:59:32;12.18;;;5.28;;
11394;SDS011;5753;54.402;10.220;2023-02-10T13:02:16;13.05;;;7.78;;
11394;SDS011;5753;54.402;10.220;2023-02-10T13:04:52;9.25;;;5.95;;
11394;SDS011;5753;54.402;10.220;2023-02-10T13:13:03;10.25;;;7.65;;
11394;SDS011;5753;54.402;10.220;2023-02-10T13:15:48;16.45;;;5.57;;
11394;SDS011;5753;54.402;10.220;2023-02-10T13:18:25;25.60;;;7.60;;
11394;SDS011;5753;54.402;10.220;2023-02-10T13:32:01;24.67;;;9.93;;
11394;SDS011;5753;54.402;10.220;2023-02-10T13:34:50;14.75;;;8.32;;
11394;SDS011;5753;54.402;10.220;2023-02-10T13:40:02;12.52;;;10.10;;
11394;SDS011;5753;54.402;10.220;2023-02-10T13:42:38;17.20;;;8.88;;
11394;SDS011;5753;54.402;10.220;2023-02-10T13:47:57;16.60;;;8.27;;
11394;SDS011;5753;54.402;10.220;2023-02-10T13:56:09;15.18;;;7.63;;
11394;SDS011;5753;54.402;10.220;2023-02-10T14:01:39;12.00;;;7.13;;
11394;SDS011;5753;54.402;10.220;2023-02-10T14:06:45;16.13;;;7.93;;
11394;SDS011;5753;54.402;10.220;2023-02-10T14:09:33;20.80;;;7.72;;
11394;SDS011;5753;54.402;10.220;2023-02-10T14:12:03;8.77;;;7.20;;
11394;SDS011;5753;54.402;10.220;2023-02-10T14:14:47;14.23;;;6.53;;
11394;SDS011;5753;54.402;10.220;2023-02-10T14:17:21;33.92;;;6.82;;
11394;SDS011;5753;54.402;10.220;2023-02-10T14:19:54;16.10;;;9.43;;
11394;SDS011;5753;54.402;10.220;2023-02-10T14:22:32;15.10;;;9.75;;
11394;SDS011;5753;54.402;10.220;2023-02-10T14:25:04;22.48;;;11.27;;
11394;SDS011;5753;54.402;10.220;2023-02-10T14:27:52;23.92;;;8.30;;
11394;SDS011;5753;54.402;10.220;2023-02-10T14:30:23;19.70;;;8.43;;
11394;SDS011;5753;54.402;10.220;2023-02-10T14:33:02;17.48;;;10.27;;
11394;SDS011;5753;54.402;10.220;2023-02-10T14:35:30;11.10;;;7.10;;
11394;SDS011;5753;54.402;10.220;2023-02-10T14:38:01;19.13;;;7.03;;
11394;SDS011;5753;54.402;10.220;2023-02-10T14:40:27;20.67;;;8.15;;
11394;SDS011;5753;54.402;10.220;2023-02-10T14:42:57;15.27;;;7.68;;
11394;SDS011;5753;54.402;10.220;2023-02-10T14:45:26;15.50;;;8.45;;
11394;SDS011;5753;54.402;10.220;2023-02-10T14:47:54;17.45;;;8.52;;
11394;SDS011;5753;54.402;10.220;2023-02-10T14:50:30;23.38;;;7.82;;
11394;SDS011;5753;54.402;10.220;2023-02-10T14:52:59;17.48;;;7.53;;
11394;SDS011;5753;54.402;10.220;2023-02-10T14:55:37;14.38;;;8.02;;
11394;SDS011;5753;54.402;10.220;2023-02-10T14:58:15;10.15;;;6.55;;
11394;SDS011;5753;54.402;10.220;2023-02-10T15:00:54;25.42;;;11.20;;
11394;SDS011;5753;54.402;10.220;2023-02-10T15:03:27;12.48;;;7.75;;
11394;SDS011;5753;54.402;10.220;2023-02-10T15:05:56;24.60;;;9.20;;
11394;SDS011;5753;54.402;10.220;2023-02-10T15:11:04;7.50;;;6.70;;
11394;SDS011;5753;54.402;10.220;2023-02-10T15:13:36;14.57;;;7.72;;
11394;SDS011;5753;54.402;10.220;2023-02-10T15:16:10;21.88;;;7.63;;
11394;SDS011;5753;54.402;10.220;2023-02-10T15:18:41;16.20;;;9.23;;
11394;SDS011;5753;54.402;10.220;2023-02-10T15:21:23;7.68;;;5.85;;
11394;SDS011;5753;54.402;10.220;2023-02-10T15:23:52;12.55;;;5.93;;
11394;SDS011;5753;54.402;10.220;2023-02-10T15:26:20;20.70;;;6.60;;
11394;SDS011;5753;54.402;10.220;2023-02-10T15:29:27;17.75;;;6.32;;
11394;SDS011;5753;54.402;10.220;2023-02-10T15:32:14;10.68;;;6.80;;
11394;SDS011;5753;54.402;10.220;2023-02-10T15:34:46;13.48;;;7.57;;
11394;SDS011;5753;54.402;10.220;2023-02-10T15:37:19;22.27;;;9.20;;
11394;SDS011;5753;54.402;10.220;2023-02-10T15:39:55;19.17;;;6.15;;
11394;SDS011;5753;54.402;10.220;2023-02-10T15:42:26;12.13;;;4.82;;
11394;SDS011;5753;54.402;10.220;2023-02-10T15:47:42;19.52;;;5.85;;
11394;SDS011;5753;54.402;10.220;2023-02-10T15:50:10;17.55;;;7.70;;
11394;SDS011;5753;54.402;10.220;2023-02-10T15:52:42;17.25;;;8.73;;
11394;SDS011;5753;54.402;10.220;2023-02-10T15:57:45;16.38;;;6.85;;
11394;SDS011;5753;54.402;10.220;2023-02-10T16:00:20;10.45;;;7.38;;
11394;SDS011;5753;54.402;10.220;2023-02-10T16:02:51;14.32;;;6.05;;
11394;SDS011;5753;54.402;10.220;2023-02-10T16:05:18;24.25;;;7.93;;
11394;SDS011;5753;54.402;10.220;2023-02-10T16:07:45;7.78;;;5.78;;
11394;SDS011;5753;54.402;10.220;2023-02-10T16:10:16;10.73;;;6.65;;
11394;SDS011;5753;54.402;10.220;2023-02-10T16:12:42;17.10;;;5.78;;
11394;SDS011;5753;54.402;10.220;2023-02-10T16:15:13;34.20;;;6.30;;
11394;SDS011;5753;54.402;10.220;2023-02-10T16:17:42;13.23;;;6.93;;
11394;SDS011;5753;54.402;10.220;2023-02-10T16:20:14;9.15;;;6.43;;
11394;SDS011;5753;54.402;10.220;2023-02-10T16:22:43;9.80;;;7.97;;
11394;SDS011;5753;54.402;10.220;2023-02-10T16:25:10;19.00;;;7.57;;
11394;SDS011;5753;54.402;10.220;2023-02-10T16:27:36;12.75;;;6.97;;
11394;SDS011;5753;54.402;10.220;2023-02-10T16:30:03;25.95;;;7.53;;
11394;SDS011;5753;54.402;10.220;2023-02-10T16:32:29;16.88;;;5.28;;
11394;SDS011;5753;54.402;10.220;2023-02-10T16:34:55;11.23;;;7.70;;
11394;SDS011;5753;54.402;10.220;2023-02-10T16:37:22;16.80;;;6.40;;
11394;SDS011;5753;54.402;10.220;2023-02-10T16:39:48;18.15;;;7.25;;
11394;SDS011;5753;54.402;10.220;2023-02-10T16:42:15;12.85;;;6.18;;
11394;SDS011;5753;54.402;10.220;2023-02-10T16:44:41;18.00;;;7.65;;
11394;SDS011;5753;54.402;10.220;2023-02-10T16:47:10;12.02;;;8.15;;
11394;SDS011;5753;54.402;10.220;2023-02-10T16:49:41;9.30;;;5.63;;
11394;SDS011;5753;54.402;10.220;2023-02-10T16:52:07;11.75;;;5.63;;
11394;SDS011;5753;54.402;10.220;2023-02-10T16:54:33;17.33;;;6.75;;
11394;SDS011;5753;54.402;10.220;2023-02-10T16:56:59;11.68;;;7.82;;
11394;SDS011;5753;54.402;10.220;2023-02-10T16:59:25;16.73;;;7.05;;
11394;SDS011;5753;54.402;10.220;2023-02-10T17:01:52;18.48;;;7.75;;
11394;SDS011;5753;54.402;10.220;2023-02-10T17:04:19;15.45;;;6.63;;
11394;SDS011;5753;54.402;10.220;2023-02-10T17:06:47;9.25;;;5.22;;
11394;SDS011;5753;54.402;10.220;2023-02-10T17:09:16;13.68;;;6.70;;
11394;SDS011;5753;54.402;10.220;2023-02-10T17:11:44;10.25;;;5.85;;
11394;SDS011;5753;54.402;10.220;2023-02-10T17:14:10;17.63;;;5.03;;
11394;SDS011;5753;54.402;10.220;2023-02-10T17:16:38;13.40;;;8.57;;
11394;SDS011;5753;54.402;10.220;2023-02-10T17:19:07;15.10;;;6.70;;